createdAt,value
2022-10-14T00:02:49.576Z,17.4
2022-10-14T00:04:53.625Z,16.4
2022-10-14T00:07:00.686Z,17.2
2022-10-14T00:09:04.745Z,19.9
2022-10-14T00:11:08.791Z,19
2022-10-14T00:12:12.322Z,20
2022-10-14T00:14:16.376Z,16.8
2022-10-14T00:16:20.413Z,17.2
2022-10-14T00:18:24.473Z,17.4
2022-10-14T00:20:31.562Z,19.6
2022-10-14T00:22:35.608Z,19.5
2022-10-14T00:24:39.627Z,20.9
2022-10-14T00:26:43.708Z,22.6
2022-10-14T00:28:47.830Z,22.1
2022-10-14T00:30:51.764Z,22.2
2022-10-14T00:32:55.834Z,20.8
2022-10-14T00:35:02.925Z,24.4
2022-10-14T00:37:06.934Z,25.4
2022-10-14T00:39:10.975Z,28.6
2022-10-14T00:41:15.031Z,26.8
2022-10-14T00:43:19.054Z,26
2022-10-14T00:45:23.107Z,24.9
2022-10-14T00:47:27.150Z,26.2
2022-10-14T00:49:34.202Z,30.4
2022-10-14T00:51:38.250Z,27.2
2022-10-14T00:53:42.289Z,32
2022-10-14T00:55:46.343Z,28.9
2022-10-14T00:57:50.365Z,30.5
2022-10-14T00:59:54.408Z,27.5
2022-10-14T01:01:58.472Z,27.6
2022-10-14T01:04:05.519Z,28
2022-10-14T01:06:09.552Z,28.9
2022-10-14T01:08:13.617Z,29.1
2022-10-14T01:10:31.838Z,33.1
2022-10-14T01:12:35.909Z,32.8
2022-10-14T01:14:39.892Z,30.9
2022-10-14T01:16:46.950Z,34.1
2022-10-14T01:18:50.993Z,34.4
2022-10-14T01:20:55.038Z,34.3
2022-10-14T01:22:59.062Z,32.4
2022-10-14T01:25:03.117Z,34.3
2022-10-14T01:27:07.155Z,35.9
2022-10-14T01:29:11.204Z,36.3
2022-10-14T01:31:18.237Z,38.8
2022-10-14T01:33:22.287Z,40.3
2022-10-14T01:37:30.355Z,42.1
2022-10-14T01:39:34.389Z,40.8
2022-10-14T01:41:38.419Z,38.3
2022-10-14T01:43:42.468Z,39
2022-10-14T01:45:49.521Z,39.2
2022-10-14T01:47:53.559Z,39.8
2022-10-14T01:49:57.579Z,37.5
2022-10-14T01:52:01.623Z,39.6
2022-10-14T01:54:05.654Z,37
2022-10-14T01:56:09.695Z,36.6
2022-10-14T01:58:13.724Z,38.7
2022-10-14T02:00:20.809Z,40.4
2022-10-14T02:02:24.831Z,33
2022-10-14T02:04:30.460Z,35.6
2022-10-14T02:05:33.944Z,31.4
2022-10-14T02:07:37.952Z,32.6
2022-10-14T02:09:41.989Z,32.7
2022-10-14T02:11:46.040Z,33.3
2022-10-14T02:13:53.080Z,34.2
2022-10-14T02:15:57.099Z,31.6
2022-10-14T02:18:01.143Z,31.9
2022-10-14T02:20:05.185Z,31.9
2022-10-14T02:22:09.176Z,31.5
2022-10-14T02:24:13.217Z,32.7
2022-10-14T02:26:17.299Z,34.1
2022-10-14T02:28:24.401Z,37.7
2022-10-14T02:30:28.339Z,39.5
2022-10-14T02:32:32.372Z,41.2
2022-10-14T02:34:36.397Z,39.9
2022-10-14T02:36:40.446Z,35.8
2022-10-14T02:38:44.450Z,37.4
2022-10-14T02:40:48.474Z,36.9
2022-10-14T02:42:55.526Z,38.2
2022-10-14T02:44:59.520Z,40
2022-10-14T02:47:03.566Z,38.6
2022-10-14T02:49:07.583Z,38.8
2022-10-14T02:51:11.629Z,39.2
2022-10-14T02:53:15.650Z,45
2022-10-14T02:55:19.670Z,39.3
2022-10-14T02:59:30.742Z,46.5
2022-10-14T03:01:37.571Z,48.8
2022-10-14T03:02:38.267Z,50.6
2022-10-14T03:04:42.307Z,48.2
2022-10-14T03:06:46.334Z,50.8
2022-10-14T03:08:50.368Z,51.3
2022-10-14T03:10:57.431Z,62
2022-10-14T03:13:01.480Z,62.6
2022-10-14T03:15:05.450Z,62.7
2022-10-14T03:17:09.486Z,61.2
2022-10-14T03:19:13.521Z,58.6
2022-10-14T03:23:21.560Z,65.3
2022-10-14T03:25:28.591Z,73.7
2022-10-14T03:29:36.651Z,73.8
2022-10-14T03:31:40.703Z,70.5
2022-10-14T03:33:44.701Z,74.1
2022-10-14T03:35:48.726Z,74.7
2022-10-14T03:37:52.738Z,75.1
2022-10-14T03:39:59.787Z,82.5
2022-10-14T03:42:03.810Z,80
2022-10-14T03:44:07.838Z,82.7
2022-10-14T03:46:11.871Z,80.7
2022-10-14T03:48:15.892Z,89.2
2022-10-14T03:50:20.098Z,94.4
2022-10-14T03:52:24.272Z,100.6
2022-10-14T03:54:31.013Z,111.6
2022-10-14T03:56:35.038Z,104.5
2022-10-14T03:58:39.045Z,107.6
2022-10-14T03:59:42.616Z,116.6
2022-10-14T04:01:46.673Z,116.5
2022-10-14T04:03:50.654Z,113.5
2022-10-14T04:10:05.781Z,121
2022-10-14T04:12:09.779Z,111.5
2022-10-14T04:14:14.433Z,114.1
2022-10-14T04:16:17.876Z,119.9
2022-10-14T04:20:25.938Z,119.1
2022-10-14T04:22:32.951Z,124.3
2022-10-14T04:24:36.988Z,128.7
2022-10-14T04:26:41.032Z,121.6
2022-10-14T04:28:45.130Z,125.4
2022-10-14T04:30:49.099Z,127.3
2022-10-14T04:32:53.116Z,122.9
2022-10-14T04:34:57.157Z,116.5
2022-10-14T04:37:04.183Z,126.2
2022-10-14T04:39:08.211Z,120.5
2022-10-14T04:49:28.391Z,115.9
2022-10-14T04:53:39.462Z,113.4
2022-10-14T04:55:43.497Z,116
2022-10-14T05:00:05.770Z,118.5
2022-10-14T05:04:16.850Z,130
2022-10-14T05:10:28.974Z,122.2
2022-10-14T05:12:33.224Z,116.1
2022-10-14T05:14:37.045Z,106
2022-10-14T05:16:41.092Z,103.3
2022-10-14T05:18:48.153Z,110.8
2022-10-14T05:20:52.191Z,105
2022-10-14T05:22:56.372Z,97.3
2022-10-14T05:25:00.315Z,101
2022-10-14T05:29:08.363Z,91.3
2022-10-14T05:33:19.444Z,92.1
2022-10-14T05:35:46.367Z,86.9
2022-10-14T05:37:27.535Z,88.6
2022-10-14T05:47:50.769Z,90.8
2022-10-14T05:49:54.788Z,92.4
2022-10-14T05:51:58.869Z,93.8
2022-10-14T05:53:02.364Z,92.7
2022-10-14T05:55:06.406Z,90.2
2022-10-14T05:57:10.443Z,91.2
2022-10-14T06:03:25.615Z,23.5
2022-10-14T06:05:29.614Z,21.9
2022-10-14T06:07:33.652Z,26.7
2022-10-14T06:09:37.711Z,24.5
2022-10-14T06:11:41.767Z,26.4
2022-10-14T06:13:45.931Z,28.6
2022-10-14T06:15:52.840Z,26.8
2022-10-14T06:17:56.888Z,28.9
2022-10-14T06:20:00.926Z,28.5
2022-10-14T06:22:04.960Z,28.8
2022-10-14T06:24:09.035Z,30
2022-10-14T06:26:13.045Z,27.5
2022-10-14T06:28:17.150Z,27.9
2022-10-14T06:32:28.200Z,28.1
2022-10-14T06:34:32.237Z,30.2
2022-10-14T06:36:36.287Z,31
2022-10-14T06:38:40.334Z,30.1
2022-10-14T06:40:44.404Z,26.6
2022-10-14T06:42:48.431Z,30.3
2022-10-14T06:44:55.491Z,34.3
2022-10-14T06:46:59.534Z,28.4
2022-10-14T06:49:03.595Z,28.1
2022-10-14T06:50:07.126Z,28.8
2022-10-14T06:52:11.171Z,30.2
2022-10-14T06:54:15.225Z,29.1
2022-10-14T06:56:19.287Z,30
2022-10-14T06:58:26.334Z,27.5
2022-10-14T07:00:30.397Z,28.7
2022-10-14T07:02:34.448Z,28
2022-10-14T07:04:38.483Z,31.4
2022-10-14T07:06:42.549Z,28.1
2022-10-14T07:08:46.585Z,24.8
2022-10-14T07:10:50.641Z,27.7
2022-10-14T07:12:57.697Z,25.2
2022-10-14T07:15:01.764Z,24.8
2022-10-14T07:17:05.810Z,23.6
2022-10-14T07:19:09.878Z,23.2
2022-10-14T07:21:13.925Z,26.2
2022-10-14T07:23:17.980Z,26.5
2022-10-14T07:25:22.036Z,22.2
2022-10-14T07:27:29.110Z,22.3
2022-10-14T07:29:33.159Z,23
2022-10-14T07:31:37.231Z,20.4
2022-10-14T07:33:41.269Z,24.8
2022-10-14T07:35:45.336Z,21.4
2022-10-14T07:37:49.385Z,22.9
2022-10-14T07:39:53.441Z,23.4
2022-10-14T07:42:00.535Z,24.8
2022-10-14T07:44:04.576Z,22
2022-10-14T07:46:08.734Z,22
2022-10-14T07:49:16.221Z,23.5
2022-10-14T07:51:20.296Z,23
2022-10-14T07:53:24.381Z,23.7
2022-10-14T07:55:31.434Z,24.3
2022-10-14T07:57:35.507Z,23
2022-10-14T07:59:39.565Z,22.2
2022-10-14T08:01:45.286Z,24.7
2022-10-14T08:03:49.253Z,20.7
2022-10-14T08:05:53.328Z,22.8
2022-10-14T08:07:57.405Z,21.3
2022-10-14T08:10:04.498Z,23.5
2022-10-14T08:12:08.576Z,21.4
2022-10-14T08:16:16.706Z,22.3
2022-10-14T08:18:20.790Z,20.2
2022-10-14T08:22:28.960Z,22.4
2022-10-14T08:24:36.015Z,20.6
2022-10-14T08:26:40.085Z,20.4
2022-10-14T08:30:48.253Z,21.3
2022-10-14T08:32:52.324Z,20
2022-10-14T08:34:56.401Z,19.7
2022-10-14T08:37:00.473Z,16.9
2022-10-14T08:39:07.581Z,18.7
2022-10-14T08:41:11.620Z,17.5
2022-10-14T08:43:15.730Z,15.7
2022-10-14T08:45:34.180Z,17.6
2022-10-14T08:47:38.254Z,15.2
2022-10-14T08:49:42.357Z,17
2022-10-14T08:51:49.434Z,16.6
2022-10-14T08:53:53.516Z,15.6
2022-10-14T08:55:57.599Z,15.2
2022-10-14T08:58:02.533Z,14.9
2022-10-14T09:00:05.810Z,15.1
2022-10-14T09:02:09.882Z,13.4
2022-10-14T09:06:21.074Z,16.1
2022-10-14T09:08:25.176Z,13.5
2022-10-14T09:10:29.255Z,14.5
2022-10-14T09:14:37.455Z,11.6
2022-10-14T09:16:41.536Z,13
2022-10-14T09:18:45.631Z,11.9
2022-10-14T09:20:52.722Z,12.3
2022-10-14T09:22:56.843Z,11.3
2022-10-14T09:25:00.949Z,12.1
2022-10-14T09:27:05.030Z,14.1
2022-10-14T09:29:09.120Z,11.9
2022-10-14T09:31:13.229Z,14.5
2022-10-14T09:33:17.297Z,12.1
2022-10-14T09:35:24.416Z,14.5
2022-10-14T09:37:28.530Z,11.6
2022-10-14T09:39:32.615Z,13.3
2022-10-14T09:40:36.180Z,13.8
2022-10-14T09:42:40.273Z,12.9
2022-10-14T09:44:44.378Z,11.2
2022-10-14T09:48:55.598Z,12
2022-10-14T09:53:03.793Z,11.3
2022-10-14T09:55:07.909Z,10.2
2022-10-14T09:57:11.995Z,10.3
2022-10-14T09:59:16.109Z,10.4
2022-10-14T10:01:20.200Z,10.6
2022-10-14T10:03:27.297Z,11
2022-10-14T10:05:31.413Z,8.9
2022-10-14T10:07:35.523Z,9.5
2022-10-14T10:09:39.627Z,9.3
2022-10-14T10:11:43.717Z,10.4
2022-10-14T10:13:47.840Z,8.9
2022-10-14T10:15:51.944Z,9.5
2022-10-14T10:17:59.045Z,9.6
2022-10-14T10:20:03.178Z,9.9
2022-10-14T10:22:07.359Z,9.4
2022-10-14T10:24:11.359Z,8.6
2022-10-14T10:26:15.473Z,9
2022-10-14T10:28:19.633Z,7.4
2022-10-14T10:30:23.678Z,9.1
2022-10-14T10:32:30.794Z,8.9
2022-10-14T10:34:34.891Z,7.6
2022-10-14T10:36:39.006Z,7.4
2022-10-14T10:37:42.567Z,7.8
2022-10-14T10:39:46.670Z,7.8
2022-10-14T10:41:50.771Z,8.2
2022-10-14T10:43:54.880Z,8.7
2022-10-14T10:46:02.217Z,9.9
2022-10-14T10:48:06.124Z,8.6
2022-10-14T10:50:10.283Z,7.9
2022-10-14T10:52:17.396Z,8.8
2022-10-14T10:54:18.464Z,9.8
2022-10-14T10:56:22.563Z,9.3
2022-10-14T11:00:33.798Z,9.6
2022-10-14T11:08:50.233Z,10.5
2022-10-14T11:10:54.352Z,10.9
2022-10-14T11:12:58.458Z,11.1
2022-10-14T11:15:05.648Z,13.3
2022-10-14T11:17:09.698Z,13.2
2022-10-14T11:19:14.612Z,11.5
2022-10-14T11:21:17.947Z,11.8
2022-10-14T11:23:22.050Z,12.5
2022-10-14T11:25:27.749Z,10.7
2022-10-14T11:27:30.918Z,12.7
2022-10-14T11:29:37.394Z,11
2022-10-14T11:31:41.553Z,11.9
2022-10-14T11:33:45.639Z,11.8
2022-10-14T11:34:49.199Z,12.4
2022-10-14T11:36:53.321Z,12.2
2022-10-14T11:38:57.439Z,10.8
2022-10-14T11:41:01.536Z,10.9
2022-10-14T11:43:08.663Z,12
2022-10-14T11:45:14.215Z,11.9
2022-10-14T11:47:16.936Z,12.1
2022-10-14T11:51:25.143Z,10.9
2022-10-14T11:53:29.292Z,10.3
2022-10-14T11:55:33.364Z,11
2022-10-14T11:57:40.529Z,10.1
2022-10-14T11:59:44.629Z,11.4
2022-10-14T12:01:48.744Z,10.6
2022-10-14T12:03:52.859Z,10.6
2022-10-14T12:05:56.958Z,9.4
2022-10-14T12:08:01.085Z,9.9
2022-10-14T12:12:12.311Z,11.5
2022-10-14T12:14:16.422Z,10.1
2022-10-14T12:16:20.548Z,9.3
2022-10-14T12:18:24.807Z,9.7
2022-10-14T12:20:28.814Z,10.8
2022-10-14T12:22:32.883Z,9.2
2022-10-14T12:24:36.993Z,10.6
2022-10-14T12:28:48.348Z,9.8
2022-10-14T12:30:52.367Z,8.9
2022-10-14T12:35:21.028Z,10.6
2022-10-14T12:37:28.928Z,9
2022-10-14T12:39:32.288Z,9.1
2022-10-14T12:41:36.448Z,8.3
2022-10-14T12:43:40.491Z,9
2022-10-14T12:45:44.645Z,10
2022-10-14T12:47:48.729Z,7.8
2022-10-14T12:49:52.833Z,9.4
2022-10-14T12:51:56.942Z,7.9
2022-10-14T12:54:04.069Z,9
2022-10-14T12:58:12.297Z,8.5
2022-10-14T13:00:16.429Z,10.3
2022-10-14T13:02:20.696Z,8.1
2022-10-14T13:04:24.635Z,9.2
2022-10-14T13:06:28.753Z,7.3
2022-10-14T13:08:35.879Z,9.2
2022-10-14T13:10:45.854Z,6.8
2022-10-14T13:12:44.085Z,6.4
2022-10-14T13:14:48.201Z,6.4
2022-10-14T13:16:52.299Z,6.4
2022-10-14T13:18:56.420Z,8.5
2022-10-14T13:21:00.551Z,5.9
2022-10-14T13:27:15.885Z,7
2022-10-14T13:28:19.495Z,7.5
2022-10-14T13:30:23.554Z,6.3
2022-10-14T13:32:30.785Z,5
2022-10-14T13:34:31.787Z,5.3
2022-10-14T13:36:38.903Z,6.4
2022-10-14T13:40:47.147Z,4.3
2022-10-14T13:42:51.247Z,4.5
2022-10-14T13:44:55.376Z,3.5
2022-10-14T13:46:59.479Z,4.3
2022-10-14T13:49:03.663Z,5
2022-10-14T13:53:14.835Z,4.6
2022-10-14T13:55:18.975Z,4.2
2022-10-14T13:59:43.447Z,3.8
2022-10-14T14:01:32.901Z,3.9
2022-10-14T14:03:36.957Z,3.6
2022-10-14T14:05:44.115Z,3.4
2022-10-14T14:08:30.043Z,3
2022-10-14T14:09:52.329Z,2.4
2022-10-14T14:11:56.436Z,2.4
2022-10-14T14:14:01.639Z,2.5
2022-10-14T14:16:04.664Z,3.7
2022-10-14T14:18:08.780Z,3.6
2022-10-14T14:20:16.602Z,1.8
2022-10-14T14:22:20.723Z,2.8
2022-10-14T14:24:24.842Z,2.4
2022-10-14T14:25:35.740Z,2.7
2022-10-14T14:27:32.528Z,2.7
2022-10-14T14:29:36.629Z,3.2
2022-10-14T14:33:51.230Z,2.7
2022-10-14T14:35:51.985Z,2.5
2022-10-14T14:37:56.721Z,2
2022-10-14T14:48:19.698Z,2.3
2022-10-14T14:50:30.521Z,2.3
2022-10-14T14:52:27.896Z,2.1
2022-10-14T14:54:32.013Z,2
2022-10-14T14:56:36.128Z,2.1
2022-10-14T15:02:51.476Z,2.5
2022-10-14T15:04:55.595Z,2.1
2022-10-14T15:06:59.729Z,2.5
2022-10-14T15:09:03.860Z,2.6
2022-10-14T15:11:08.021Z,2.4
2022-10-14T15:13:12.137Z,3.5
2022-10-14T15:15:16.195Z,3.4
2022-10-14T15:17:23.310Z,3.3
2022-10-14T15:19:27.421Z,3.3
2022-10-14T15:21:31.588Z,4.1
2022-10-14T15:22:39.726Z,4.7
2022-10-14T15:24:49.847Z,3.3
2022-10-14T15:26:43.355Z,5.7
2022-10-14T15:30:54.580Z,4.5
2022-10-14T15:32:58.688Z,4.2
2022-10-14T15:35:02.851Z,5.3
2022-10-14T15:37:06.915Z,4.9
2022-10-14T15:39:11.036Z,4.6
2022-10-14T15:41:15.131Z,5.2
2022-10-14T15:43:19.226Z,6.3
2022-10-14T15:45:26.370Z,6.5
2022-10-14T15:49:34.588Z,5.4
2022-10-14T15:51:38.704Z,6.8
2022-10-14T15:53:42.800Z,7.5
2022-10-14T15:55:46.903Z,8.3
2022-10-14T15:57:51.038Z,6.1
2022-10-14T15:59:58.151Z,8.4
2022-10-14T16:02:02.322Z,7.9
2022-10-14T16:04:06.383Z,8.4
2022-10-14T16:06:10.498Z,9.8
2022-10-14T16:08:14.619Z,7.7
2022-10-14T16:10:18.710Z,9.3
2022-10-14T16:14:29.953Z,11.7
2022-10-14T16:16:34.038Z,9.9
2022-10-14T16:18:38.151Z,11.4
2022-10-14T16:21:02.357Z,9.1
2022-10-14T16:23:06.481Z,10.5
2022-10-14T16:25:10.579Z,10.9
2022-10-14T16:31:25.911Z,16.8
2022-10-14T16:33:30.001Z,13.3
2022-10-14T16:35:34.147Z,12.8
2022-10-14T16:37:38.234Z,13.8
2022-10-14T16:39:42.322Z,12.2
2022-10-14T16:41:49.443Z,13.4
2022-10-14T16:43:53.532Z,13.7
2022-10-14T16:45:57.636Z,13.3
2022-10-14T16:48:01.745Z,13.8
2022-10-14T16:50:05.881Z,17.1
2022-10-14T16:52:09.938Z,19.4
2022-10-14T16:54:14.062Z,18.2
2022-10-14T16:56:21.167Z,20.6
2022-10-14T16:58:25.255Z,18.8
2022-10-14T17:00:29.403Z,152
2022-10-14T17:02:33.451Z,158.9
2022-10-14T17:04:37.570Z,162.7
2022-10-14T17:06:41.678Z,170.9
2022-10-14T17:08:45.751Z,188.8
2022-10-14T17:10:52.883Z,197
2022-10-14T17:12:56.976Z,202.8
2022-10-14T17:15:01.064Z,198.7
2022-10-14T17:16:04.629Z,203.5
2022-10-14T17:18:12.362Z,194.1
2022-10-14T17:20:12.821Z,189.3
2022-10-14T17:22:16.954Z,185.3
2022-10-14T17:24:24.047Z,162.6
2022-10-14T17:26:28.146Z,151.8
2022-10-14T17:28:32.303Z,136.9
2022-10-14T17:30:36.369Z,126.8
2022-10-14T17:32:40.465Z,117.3
2022-10-14T17:34:44.570Z,107.1
2022-10-14T17:36:48.681Z,101.1
2022-10-14T17:38:55.806Z,88.1
2022-10-14T17:40:59.893Z,82.1
2022-10-14T17:43:04.016Z,76.4
2022-10-14T17:45:08.132Z,74.2
2022-10-14T17:47:12.244Z,69.6
2022-10-14T17:49:16.314Z,61.5
2022-10-14T17:51:20.446Z,65
2022-10-14T17:53:27.537Z,65.7
2022-10-14T17:55:31.661Z,64.1
2022-10-14T17:57:35.779Z,62
2022-10-14T17:59:39.857Z,65.7
2022-10-14T18:02:01.463Z,66.2
2022-10-14T18:03:48.060Z,66.9
2022-10-14T18:05:52.170Z,70.4
2022-10-14T18:07:59.264Z,77.8
2022-10-14T18:10:03.397Z,75.2
2022-10-14T18:12:09.237Z,75
2022-10-14T18:21:30.460Z,86.8
2022-10-14T18:25:38.649Z,88.5
2022-10-14T18:36:02.168Z,114.1
2022-10-14T18:40:10.367Z,118
2022-10-14T18:42:17.199Z,118.4
2022-10-14T18:44:18.565Z,124.5
2022-10-14T18:46:22.648Z,126.2
2022-10-14T18:48:26.743Z,132
2022-10-14T18:50:33.839Z,150.9
2022-10-14T18:52:37.958Z,150.4
2022-10-14T18:54:42.055Z,156.9
2022-10-14T18:58:50.296Z,162.6
2022-10-14T19:00:54.326Z,169.6
2022-10-14T19:02:58.409Z,178.2
2022-10-14T19:07:09.595Z,189.5
2022-10-14T19:09:13.721Z,186.6
2022-10-14T19:10:17.229Z,190.2
2022-10-14T19:12:21.578Z,196.7
2022-10-14T19:14:25.417Z,197.5
2022-10-14T19:16:29.498Z,200.2
2022-10-14T19:18:36.651Z,212.3
2022-10-14T19:20:40.727Z,214.6
2022-10-14T19:22:44.926Z,213.6
2022-10-14T19:24:48.917Z,218.9
2022-10-14T19:26:53.002Z,225.1
2022-10-14T19:28:57.153Z,224.4
2022-10-14T19:31:01.144Z,228.2
2022-10-14T19:33:08.258Z,246.1
2022-10-14T19:35:12.412Z,236.4
2022-10-14T19:37:16.405Z,237.4
2022-10-14T19:39:20.498Z,236
2022-10-14T19:41:24.591Z,234
2022-10-14T19:43:28.672Z,242
2022-10-14T19:45:32.791Z,240.7
2022-10-14T19:47:39.862Z,256.8
2022-10-14T19:49:43.922Z,249.7
2022-10-14T19:53:52.105Z,235.4
2022-10-14T19:55:56.166Z,240.3
2022-10-14T19:58:00.265Z,238
2022-10-14T20:00:05.924Z,236.1
2022-10-14T20:02:12.953Z,243.5
2022-10-14T20:04:17.087Z,243.5
2022-10-14T20:06:21.146Z,244.7
2022-10-14T20:08:45.552Z,257.8
2022-10-14T20:10:49.615Z,252
2022-10-14T20:12:53.683Z,246.3
2022-10-14T20:15:00.772Z,257.6
2022-10-14T20:17:04.887Z,252.9
2022-10-14T20:19:08.936Z,252.1
2022-10-14T20:21:12.992Z,248.1
2022-10-14T20:23:17.085Z,240.1
2022-10-14T20:25:21.136Z,237.9
2022-10-14T20:27:25.384Z,232.6
2022-10-14T20:29:32.276Z,249.2
2022-10-14T20:31:36.342Z,244.1
2022-10-14T20:35:44.466Z,244.3
2022-10-14T20:37:48.552Z,252.4
2022-10-14T20:39:52.598Z,256.2
2022-10-14T20:41:56.684Z,253.3
2022-10-14T20:44:03.739Z,260.4
2022-10-14T20:46:07.821Z,258.7
2022-10-14T20:48:11.872Z,266.5
2022-10-14T20:50:15.938Z,258.8
2022-10-14T20:52:19.985Z,268.3
2022-10-14T20:54:24.047Z,260.1
2022-10-14T20:56:28.103Z,265.6
2022-10-14T21:00:39.288Z,264.3
2022-10-14T21:03:46.826Z,273.9
2022-10-14T21:05:50.896Z,263.3
2022-10-14T21:07:54.945Z,272.4
2022-10-14T21:09:59.016Z,276.9
2022-10-14T21:12:06.088Z,287
2022-10-14T21:14:10.151Z,289.7
2022-10-14T21:16:14.202Z,286.9
2022-10-14T21:18:18.257Z,287.7
2022-10-14T21:20:22.340Z,288
2022-10-14T21:22:26.408Z,284.1
2022-10-14T21:24:30.425Z,291.6
2022-10-14T21:26:37.490Z,301.1
2022-10-14T21:28:41.591Z,298.5
2022-10-14T21:30:45.630Z,296.7
2022-10-14T21:32:49.658Z,297.7
2022-10-14T21:39:01.854Z,291.7
2022-10-14T21:43:12.947Z,284.6
2022-10-14T21:47:21.063Z,280.4
2022-10-14T21:49:25.111Z,283
2022-10-14T21:51:29.191Z,282.5
2022-10-14T21:53:33.292Z,274.5
2022-10-14T21:55:40.348Z,280.6
2022-10-14T21:57:44.403Z,286.1
2022-10-14T21:59:48.472Z,282.8
2022-10-14T22:05:00.126Z,286.2
2022-10-14T22:07:04.176Z,283.2
2022-10-14T22:09:11.237Z,294.7
2022-10-14T22:11:15.291Z,291.4
2022-10-14T22:13:19.350Z,289.9
2022-10-14T22:15:23.402Z,293.3
2022-10-14T22:17:27.459Z,292.2
2022-10-14T22:19:31.509Z,297.3
2022-10-14T22:21:35.559Z,292.3
2022-10-14T22:23:42.622Z,297.3
2022-10-14T22:25:46.684Z,303.1
2022-10-14T22:27:50.742Z,303.6
2022-10-14T22:29:54.793Z,305.4
2022-10-14T22:31:58.850Z,305
2022-10-14T22:34:02.914Z,307.2
2022-10-14T22:36:06.967Z,306
2022-10-14T22:38:14.060Z,319.1
2022-10-14T22:40:18.092Z,321.8
2022-10-14T22:42:22.221Z,323
2022-10-14T22:44:26.209Z,320.3
2022-10-14T22:46:30.249Z,321.3
2022-10-14T22:48:34.338Z,320.9
2022-10-14T22:50:38.361Z,318.7
2022-10-14T22:52:45.426Z,316.8
2022-10-14T22:54:49.492Z,315.9
2022-10-14T22:56:53.553Z,314.3
2022-10-14T23:04:09.245Z,304.1
2022-10-14T23:14:32.542Z,307.4
2022-10-14T23:20:47.716Z,304.8
2022-10-14T23:22:51.799Z,302.9
2022-10-14T23:24:55.835Z,300.1
2022-10-14T23:26:59.894Z,300.5
2022-10-14T23:29:04.089Z,301
2022-10-14T23:31:07.972Z,289.8
2022-10-14T23:33:12.006Z,286.3
2022-10-14T23:35:19.115Z,290.2
2022-10-14T23:37:23.505Z,286.1
2022-10-14T23:39:27.198Z,280.7
2022-10-14T23:41:31.240Z,284.5
2022-10-14T23:43:35.302Z,281
2022-10-14T23:45:39.394Z,281.8
2022-10-14T23:47:43.377Z,280.3
2022-10-14T23:49:50.436Z,284.2
2022-10-14T23:51:54.510Z,275.2
2022-10-14T23:53:58.557Z,276.3
2022-10-14T23:56:23.074Z,265.5
2022-10-14T23:58:27.138Z,273.5
